Airport View

Enter AWOS ICAO identifier for current METAR.

ex. KFNL

KSBD 261220Z AUTO 00000KT 5SM HZ OVC013 18/14 A2992 RMK AO2 T01770135

26 Jun 2019 12:44

Frequency: 124.175

Phone: 909-382-0067

Other Area AWOS: KRIV - KRAL - KONT - KCNO

TAF KSBD 261122Z 2612/2712 VRB03KT 5SM HZ OVC012 FM261900 26010KT 3SM HZ SKC FM270400 25006KT 6SM HZ SKC